VTD4915 USHN-USRR
Flight info
| Callsign | VTD4915 |
|---|---|
| Flight time | 0h 52m |
| Altitude | 21000 |
| Route | SORLI B228 HMN L870 KOVER |
| Aircraft | B738/M-SDE1FGHIJ1RWXYZ/LB1 |
Departure
| Time | 2026-04-24 08:06 |
|---|---|
| Airport | Nyagan Airport (USHN) |
Arrival
| Time | 2026-04-24 08:59 |
|---|---|
| Airport | Surgut International Airport (USRR) |
| Time | Latitude | Longitude | Altitude | Speed | Heading |
|---|---|---|---|---|---|
| 2026-04-24 07:53 | 62.10770 | 65.60849 | 353 ft | 0 kts | 360° |
| 2026-04-24 08:00 | 62.10777 | 65.60849 | 353 ft | 2 kts | 360° |
| 2026-04-24 08:01 | 62.10792 | 65.60852 | 355 ft | 3 kts | 12° |
| 2026-04-24 08:01 | 62.10806 | 65.60876 | 358 ft | 3 kts | 49° |
| 2026-04-24 08:01 | 62.10814 | 65.60918 | 353 ft | 3 kts | 75° |
| 2026-04-24 08:01 | 62.10817 | 65.60976 | 353 ft | 4 kts | 89° |
| 2026-04-24 08:02 | 62.10816 | 65.61048 | 353 ft | 5 kts | 91° |
| 2026-04-24 08:02 | 62.10815 | 65.61133 | 353 ft | 6 kts | 92° |
| 2026-04-24 08:02 | 62.10813 | 65.61228 | 353 ft | 6 kts | 92° |
| 2026-04-24 08:02 | 62.10801 | 65.61315 | 358 ft | 6 kts | 136° |
| 2026-04-24 08:03 | 62.10760 | 65.61347 | 359 ft | 6 kts | 174° |
| 2026-04-24 08:03 | 62.10711 | 65.61346 | 359 ft | 8 kts | 182° |
| 2026-04-24 08:03 | 62.10643 | 65.61340 | 359 ft | 11 kts | 182° |
| 2026-04-24 08:03 | 62.10556 | 65.61333 | 358 ft | 14 kts | 182° |
| 2026-04-24 08:04 | 62.10444 | 65.61322 | 360 ft | 18 kts | 183° |
| 2026-04-24 08:04 | 62.10309 | 65.61307 | 355 ft | 21 kts | 182° |
| 2026-04-24 08:04 | 62.10155 | 65.61296 | 355 ft | 23 kts | 182° |
| 2026-04-24 08:04 | 62.10013 | 65.61281 | 358 ft | 16 kts | 187° |
| 2026-04-24 08:05 | 62.09957 | 65.61220 | 352 ft | 3 kts | 181° |
| 2026-04-24 08:05 | 62.09943 | 65.61246 | 357 ft | 3 kts | 119° |
| 2026-04-24 08:05 | 62.09946 | 65.61268 | 356 ft | 3 kts | 64° |
| 2026-04-24 08:05 | 62.09964 | 65.61285 | 357 ft | 3 kts | 4° |
| 2026-04-24 08:06 | 62.10000 | 65.61285 | 353 ft | 8 kts | 2° |
| 2026-04-24 08:06 | 62.10253 | 65.61305 | 354 ft | 82 kts | 2° |
| 2026-04-24 08:06 | 62.11130 | 65.61383 | 369 ft | 166 kts | 1° |
| 2026-04-24 08:06 | 62.12357 | 65.61496 | 1324 ft | 177 kts | 2° |
| 2026-04-24 08:07 | 62.13564 | 65.62249 | 2367 ft | 190 kts | 29° |
| 2026-04-24 08:07 | 62.14592 | 65.63773 | 3622 ft | 171 kts | 36° |
| 2026-04-24 08:07 | 62.15619 | 65.65215 | 4404 ft | 186 kts | 30° |
| 2026-04-24 08:07 | 62.16834 | 65.66756 | 4753 ft | 219 kts | 29° |
| 2026-04-24 08:08 | 62.18233 | 65.68497 | 5036 ft | 245 kts | 29° |
| 2026-04-24 08:08 | 62.19782 | 65.70415 | 5382 ft | 270 kts | 29° |
| 2026-04-24 08:08 | 62.21438 | 65.72461 | 6236 ft | 278 kts | 29° |
| 2026-04-24 08:09 | 62.24804 | 65.76612 | 8289 ft | 282 kts | 28° |
| 2026-04-24 08:09 | 62.26520 | 65.78725 | 9219 ft | 288 kts | 29° |
| 2026-04-24 08:09 | 62.28260 | 65.80868 | 9628 ft | 289 kts | 29° |
| 2026-04-24 08:09 | 62.30023 | 65.83041 | 9701 ft | 300 kts | 29° |
| 2026-04-24 08:10 | 62.31933 | 65.85396 | 9722 ft | 332 kts | 29° |
| 2026-04-24 08:10 | 62.33957 | 65.87896 | 9716 ft | 339 kts | 29° |
| 2026-04-24 08:10 | 62.36002 | 65.90428 | 9707 ft | 339 kts | 29° |
| 2026-04-24 08:10 | 62.38034 | 65.92947 | 9706 ft | 337 kts | 29° |
| 2026-04-24 08:11 | 62.40061 | 65.95463 | 9702 ft | 337 kts | 29° |
| 2026-04-24 08:11 | 62.42083 | 65.97976 | 9703 ft | 336 kts | 29° |
| 2026-04-24 08:11 | 62.44002 | 66.00883 | 9818 ft | 345 kts | 45° |
| 2026-04-24 08:11 | 62.45384 | 66.05106 | 10705 ft | 346 kts | 64° |
| 2026-04-24 08:12 | 62.46091 | 66.10061 | 11668 ft | 349 kts | 83° |
| 2026-04-24 08:12 | 62.46000 | 66.15292 | 12506 ft | 353 kts | 104° |
| 2026-04-24 08:12 | 62.45050 | 66.20160 | 13323 ft | 356 kts | 126° |
| 2026-04-24 08:12 | 62.43337 | 66.23982 | 14102 ft | 356 kts | 143° |
| 2026-04-24 08:13 | 62.41382 | 66.27284 | 14905 ft | 360 kts | 144° |
| 2026-04-24 08:13 | 62.39447 | 66.30755 | 15697 ft | 365 kts | 140° |
| 2026-04-24 08:13 | 62.37608 | 66.34550 | 16469 ft | 370 kts | 136° |
| 2026-04-24 08:13 | 62.35863 | 66.38666 | 17233 ft | 375 kts | 133° |
| 2026-04-24 08:14 | 62.34196 | 66.43017 | 17988 ft | 380 kts | 130° |
| 2026-04-24 08:14 | 62.32576 | 66.47550 | 18657 ft | 385 kts | 129° |
| 2026-04-24 08:14 | 62.30988 | 66.52190 | 19343 ft | 388 kts | 128° |
| 2026-04-24 08:14 | 62.29409 | 66.56911 | 19992 ft | 392 kts | 127° |
| 2026-04-24 08:15 | 62.27821 | 66.61710 | 20581 ft | 397 kts | 127° |
| 2026-04-24 08:15 | 62.26227 | 66.66548 | 20701 ft | 398 kts | 127° |
| 2026-04-24 08:15 | 62.24634 | 66.71388 | 20719 ft | 397 kts | 127° |
| 2026-04-24 08:15 | 62.23045 | 66.76209 | 20722 ft | 397 kts | 127° |
| 2026-04-24 08:16 | 62.21455 | 66.81025 | 20733 ft | 397 kts | 127° |
| 2026-04-24 08:16 | 62.19862 | 66.85835 | 20729 ft | 397 kts | 127° |
| 2026-04-24 08:16 | 62.18265 | 66.90645 | 20728 ft | 397 kts | 127° |
| 2026-04-24 08:16 | 62.16670 | 66.95437 | 20726 ft | 397 kts | 127° |
| 2026-04-24 08:17 | 62.15070 | 67.00232 | 20734 ft | 397 kts | 127° |
| 2026-04-24 08:17 | 62.13467 | 67.05030 | 20730 ft | 397 kts | 127° |
| 2026-04-24 08:17 | 62.11864 | 67.09814 | 20735 ft | 397 kts | 127° |
| 2026-04-24 08:17 | 62.10260 | 67.14591 | 20733 ft | 397 kts | 127° |
| 2026-04-24 08:18 | 62.08652 | 67.19373 | 20732 ft | 397 kts | 127° |
| 2026-04-24 08:18 | 62.07044 | 67.24143 | 20733 ft | 397 kts | 127° |
| 2026-04-24 08:18 | 62.05435 | 67.28907 | 20729 ft | 397 kts | 127° |
| 2026-04-24 08:18 | 62.03820 | 67.33676 | 20733 ft | 397 kts | 127° |
| 2026-04-24 08:19 | 62.02207 | 67.38433 | 20730 ft | 397 kts | 127° |
| 2026-04-24 08:19 | 62.00591 | 67.43187 | 20732 ft | 397 kts | 127° |
| 2026-04-24 08:19 | 61.98974 | 67.47936 | 20727 ft | 397 kts | 127° |
| 2026-04-24 08:19 | 61.97355 | 67.52679 | 20726 ft | 397 kts | 127° |
| 2026-04-24 08:20 | 61.95736 | 67.57413 | 20726 ft | 397 kts | 127° |
| 2026-04-24 08:20 | 61.94114 | 67.62146 | 20732 ft | 397 kts | 127° |
| 2026-04-24 08:20 | 61.92492 | 67.66870 | 20729 ft | 397 kts | 127° |
| 2026-04-24 08:20 | 61.90870 | 67.71583 | 20724 ft | 397 kts | 127° |
| 2026-04-24 08:21 | 61.89244 | 67.76299 | 20721 ft | 396 kts | 127° |
| 2026-04-24 08:21 | 61.87618 | 67.81003 | 20715 ft | 396 kts | 127° |
| 2026-04-24 08:21 | 61.85995 | 67.85693 | 20721 ft | 396 kts | 127° |
| 2026-04-24 08:21 | 61.84369 | 67.90380 | 20725 ft | 396 kts | 127° |
| 2026-04-24 08:22 | 61.82741 | 67.95067 | 20715 ft | 396 kts | 127° |
| 2026-04-24 08:22 | 61.81119 | 67.99731 | 20716 ft | 396 kts | 127° |
| 2026-04-24 08:22 | 61.79484 | 68.04412 | 20716 ft | 396 kts | 127° |
| 2026-04-24 08:22 | 61.77815 | 68.09023 | 20716 ft | 395 kts | 132° |
| 2026-04-24 08:23 | 61.75860 | 68.13068 | 20723 ft | 393 kts | 142° |
| 2026-04-24 08:23 | 61.73631 | 68.16377 | 20724 ft | 392 kts | 148° |
| 2026-04-24 08:23 | 61.71362 | 68.19536 | 20714 ft | 392 kts | 148° |
| 2026-04-24 08:23 | 61.69087 | 68.22706 | 20713 ft | 392 kts | 148° |
| 2026-04-24 08:24 | 61.66825 | 68.25867 | 20712 ft | 392 kts | 147° |
| 2026-04-24 08:24 | 61.64550 | 68.29057 | 20704 ft | 392 kts | 147° |
| 2026-04-24 08:24 | 61.62285 | 68.32238 | 20712 ft | 392 kts | 147° |
| 2026-04-24 08:24 | 61.60023 | 68.35414 | 20713 ft | 392 kts | 147° |
| 2026-04-24 08:25 | 61.57759 | 68.38590 | 20716 ft | 392 kts | 147° |
| 2026-04-24 08:25 | 61.55499 | 68.41755 | 20712 ft | 392 kts | 147° |
| 2026-04-24 08:25 | 61.53236 | 68.44920 | 20715 ft | 392 kts | 147° |
| 2026-04-24 08:25 | 61.50976 | 68.48075 | 20704 ft | 392 kts | 147° |
| 2026-04-24 08:26 | 61.48711 | 68.51230 | 20711 ft | 392 kts | 147° |
| 2026-04-24 08:26 | 61.46445 | 68.54383 | 20703 ft | 392 kts | 148° |
| 2026-04-24 08:26 | 61.44180 | 68.57529 | 20706 ft | 392 kts | 148° |
| 2026-04-24 08:26 | 61.41914 | 68.60668 | 20709 ft | 391 kts | 148° |
| 2026-04-24 08:27 | 61.39649 | 68.63793 | 20711 ft | 391 kts | 148° |
| 2026-04-24 08:27 | 61.37376 | 68.66896 | 20704 ft | 391 kts | 148° |
| 2026-04-24 08:27 | 61.35107 | 68.69979 | 20707 ft | 391 kts | 148° |
| 2026-04-24 08:27 | 61.32822 | 68.73076 | 20708 ft | 391 kts | 148° |
| 2026-04-24 08:28 | 61.30544 | 68.76161 | 20706 ft | 392 kts | 148° |
| 2026-04-24 08:28 | 61.28264 | 68.79245 | 20701 ft | 392 kts | 148° |
| 2026-04-24 08:28 | 61.25983 | 68.82328 | 20699 ft | 392 kts | 148° |
| 2026-04-24 08:28 | 61.23701 | 68.85406 | 20698 ft | 392 kts | 148° |
| 2026-04-24 08:29 | 61.21419 | 68.88480 | 20696 ft | 392 kts | 149° |
| 2026-04-24 08:29 | 61.19138 | 68.91548 | 20698 ft | 392 kts | 149° |
| 2026-04-24 08:29 | 61.16849 | 68.94622 | 20700 ft | 392 kts | 149° |
| 2026-04-24 08:29 | 61.14563 | 68.97686 | 20687 ft | 393 kts | 149° |
| 2026-04-24 08:30 | 61.12276 | 69.00748 | 20688 ft | 393 kts | 149° |
| 2026-04-24 08:30 | 61.09986 | 69.03806 | 20693 ft | 393 kts | 149° |
| 2026-04-24 08:30 | 61.07705 | 69.06876 | 20690 ft | 393 kts | 146° |
| 2026-04-24 08:30 | 61.05767 | 69.10843 | 20693 ft | 397 kts | 126° |
| 2026-04-24 08:31 | 61.04604 | 69.15992 | 20692 ft | 400 kts | 105° |
| 2026-04-24 08:31 | 61.04318 | 69.21676 | 20689 ft | 402 kts | 85° |
| 2026-04-24 08:31 | 61.04822 | 69.27323 | 20709 ft | 402 kts | 77° |
| 2026-04-24 08:31 | 61.05461 | 69.32932 | 20695 ft | 402 kts | 76° |
| 2026-04-24 08:32 | 61.06110 | 69.38541 | 20688 ft | 403 kts | 76° |
| 2026-04-24 08:32 | 61.06753 | 69.44159 | 20694 ft | 403 kts | 77° |
| 2026-04-24 08:32 | 61.07385 | 69.49788 | 20700 ft | 403 kts | 77° |
| 2026-04-24 08:32 | 61.08008 | 69.55419 | 20700 ft | 403 kts | 77° |
| 2026-04-24 08:33 | 61.08624 | 69.61061 | 20709 ft | 403 kts | 77° |
| 2026-04-24 08:33 | 61.09235 | 69.66705 | 20708 ft | 404 kts | 77° |
| 2026-04-24 08:33 | 61.09843 | 69.72352 | 20721 ft | 403 kts | 77° |
| 2026-04-24 08:33 | 61.10449 | 69.78007 | 20726 ft | 404 kts | 77° |
| 2026-04-24 08:34 | 61.11052 | 69.83663 | 20722 ft | 404 kts | 77° |
| 2026-04-24 08:34 | 61.11653 | 69.89318 | 20729 ft | 403 kts | 77° |
| 2026-04-24 08:34 | 61.12253 | 69.94970 | 20721 ft | 403 kts | 77° |
| 2026-04-24 08:34 | 61.12850 | 70.00633 | 20724 ft | 403 kts | 77° |
| 2026-04-24 08:35 | 61.13438 | 70.06289 | 20730 ft | 403 kts | 78° |
| 2026-04-24 08:35 | 61.14003 | 70.11954 | 20732 ft | 403 kts | 78° |
| 2026-04-24 08:35 | 61.14557 | 70.17627 | 20731 ft | 403 kts | 78° |
| 2026-04-24 08:35 | 61.15107 | 70.23309 | 20741 ft | 403 kts | 78° |
| 2026-04-24 08:36 | 61.15654 | 70.28983 | 20736 ft | 403 kts | 78° |
| 2026-04-24 08:36 | 61.16202 | 70.34661 | 20739 ft | 403 kts | 78° |
| 2026-04-24 08:36 | 61.16748 | 70.40344 | 20744 ft | 403 kts | 78° |
| 2026-04-24 08:36 | 61.17294 | 70.46039 | 20749 ft | 403 kts | 79° |
| 2026-04-24 08:37 | 61.17838 | 70.51727 | 20749 ft | 403 kts | 79° |
| 2026-04-24 08:37 | 61.18378 | 70.57414 | 20745 ft | 403 kts | 79° |
| 2026-04-24 08:37 | 61.18917 | 70.63109 | 20750 ft | 403 kts | 79° |
| 2026-04-24 08:37 | 61.19453 | 70.68795 | 20748 ft | 403 kts | 79° |
| 2026-04-24 08:38 | 61.19986 | 70.74488 | 20754 ft | 403 kts | 79° |
| 2026-04-24 08:38 | 61.20518 | 70.80171 | 20756 ft | 403 kts | 79° |
| 2026-04-24 08:38 | 61.21047 | 70.85868 | 20757 ft | 402 kts | 79° |
| 2026-04-24 08:38 | 61.21573 | 70.91557 | 20757 ft | 402 kts | 79° |
| 2026-04-24 08:39 | 61.22081 | 70.97240 | 20758 ft | 400 kts | 80° |
| 2026-04-24 08:39 | 61.22552 | 71.02837 | 20745 ft | 388 kts | 80° |
| 2026-04-24 08:39 | 61.22999 | 71.08300 | 20753 ft | 383 kts | 80° |
| 2026-04-24 08:39 | 61.23441 | 71.13735 | 20756 ft | 383 kts | 80° |
| 2026-04-24 08:40 | 61.23883 | 71.19184 | 20720 ft | 384 kts | 80° |
| 2026-04-24 08:40 | 61.24326 | 71.24642 | 20367 ft | 382 kts | 81° |
| 2026-04-24 08:40 | 61.24763 | 71.30036 | 19946 ft | 379 kts | 81° |
| 2026-04-24 08:40 | 61.25197 | 71.35406 | 19517 ft | 376 kts | 81° |
| 2026-04-24 08:41 | 61.25626 | 71.40731 | 19076 ft | 373 kts | 81° |
| 2026-04-24 08:41 | 61.26049 | 71.46018 | 18641 ft | 370 kts | 81° |
| 2026-04-24 08:41 | 61.26468 | 71.51268 | 18206 ft | 368 kts | 81° |
| 2026-04-24 08:41 | 61.26883 | 71.56501 | 17736 ft | 367 kts | 81° |
| 2026-04-24 08:42 | 61.27294 | 71.61706 | 17255 ft | 365 kts | 81° |
| 2026-04-24 08:42 | 61.27701 | 71.66877 | 16805 ft | 362 kts | 81° |
| 2026-04-24 08:42 | 61.28103 | 71.72018 | 16382 ft | 359 kts | 81° |
| 2026-04-24 08:42 | 61.28508 | 71.77109 | 15917 ft | 357 kts | 79° |
| 2026-04-24 08:43 | 61.28971 | 71.82176 | 15421 ft | 357 kts | 78° |
| 2026-04-24 08:43 | 61.29455 | 71.87213 | 14990 ft | 355 kts | 78° |
| 2026-04-24 08:43 | 61.29936 | 71.92220 | 14559 ft | 353 kts | 78° |
| 2026-04-24 08:43 | 61.30407 | 71.97207 | 14138 ft | 351 kts | 79° |
| 2026-04-24 08:44 | 61.30867 | 72.02161 | 13718 ft | 349 kts | 79° |
| 2026-04-24 08:44 | 61.31321 | 72.07097 | 13266 ft | 347 kts | 79° |
| 2026-04-24 08:44 | 61.31790 | 72.11989 | 12852 ft | 344 kts | 78° |
| 2026-04-24 08:44 | 61.32276 | 72.16821 | 12437 ft | 341 kts | 78° |
| 2026-04-24 08:45 | 61.32764 | 72.21618 | 12011 ft | 338 kts | 78° |
| 2026-04-24 08:45 | 61.33249 | 72.26385 | 11609 ft | 336 kts | 78° |
| 2026-04-24 08:45 | 61.33727 | 72.31119 | 11191 ft | 334 kts | 78° |
| 2026-04-24 08:45 | 61.34200 | 72.35825 | 10793 ft | 332 kts | 78° |
| 2026-04-24 08:46 | 61.34667 | 72.40508 | 10381 ft | 330 kts | 78° |
| 2026-04-24 08:46 | 61.35126 | 72.45130 | 10166 ft | 322 kts | 78° |
| 2026-04-24 08:46 | 61.35570 | 72.49622 | 10015 ft | 311 kts | 78° |
| 2026-04-24 08:46 | 61.35995 | 72.53935 | 9874 ft | 299 kts | 78° |
| 2026-04-24 08:47 | 61.36403 | 72.58102 | 9757 ft | 290 kts | 78° |
| 2026-04-24 08:47 | 61.36802 | 72.62192 | 9487 ft | 287 kts | 78° |
| 2026-04-24 08:47 | 61.37198 | 72.66252 | 9182 ft | 286 kts | 78° |
| 2026-04-24 08:47 | 61.37590 | 72.70296 | 8880 ft | 284 kts | 79° |
| 2026-04-24 08:48 | 61.37979 | 72.74316 | 8582 ft | 283 kts | 79° |
| 2026-04-24 08:48 | 61.38365 | 72.78313 | 8298 ft | 281 kts | 79° |
| 2026-04-24 08:48 | 61.38746 | 72.82284 | 7998 ft | 279 kts | 79° |
| 2026-04-24 08:48 | 61.39125 | 72.86238 | 7708 ft | 278 kts | 79° |
| 2026-04-24 08:49 | 61.39501 | 72.90175 | 7421 ft | 277 kts | 79° |
| 2026-04-24 08:49 | 61.39873 | 72.94093 | 7151 ft | 275 kts | 79° |
| 2026-04-24 08:49 | 61.40161 | 72.98016 | 6829 ft | 273 kts | 92° |
| 2026-04-24 08:49 | 61.39627 | 73.01696 | 6360 ft | 265 kts | 128° |
| 2026-04-24 08:50 | 61.38246 | 73.04087 | 5889 ft | 258 kts | 158° |
| 2026-04-24 08:50 | 61.36711 | 73.05801 | 5694 ft | 248 kts | 139° |
| 2026-04-24 08:50 | 61.35887 | 73.08803 | 5576 ft | 237 kts | 105° |
| 2026-04-24 08:50 | 61.35524 | 73.12038 | 5478 ft | 222 kts | 108° |
| 2026-04-24 08:51 | 61.35127 | 73.15020 | 5383 ft | 206 kts | 103° |
| 2026-04-24 08:51 | 61.35243 | 73.17942 | 5079 ft | 211 kts | 61° |
| 2026-04-24 08:51 | 61.36355 | 73.20132 | 4908 ft | 238 kts | 24° |
| 2026-04-24 08:51 | 61.38038 | 73.20831 | 4650 ft | 261 kts | 354° |
| 2026-04-24 08:52 | 61.39736 | 73.19632 | 4387 ft | 260 kts | 327° |
| 2026-04-24 08:52 | 61.41241 | 73.17519 | 4140 ft | 263 kts | 323° |
| 2026-04-24 08:52 | 61.42740 | 73.15261 | 3881 ft | 268 kts | 319° |
| 2026-04-24 08:52 | 61.43830 | 73.12230 | 3593 ft | 262 kts | 289° |
| 2026-04-24 08:53 | 61.44067 | 73.08537 | 3346 ft | 256 kts | 263° |
| 2026-04-24 08:53 | 61.43594 | 73.05055 | 3058 ft | 248 kts | 241° |
| 2026-04-24 08:53 | 61.42523 | 73.02326 | 2836 ft | 240 kts | 224° |
| 2026-04-24 08:53 | 61.41250 | 73.00233 | 2561 ft | 230 kts | 204° |
| 2026-04-24 08:54 | 61.39714 | 72.99766 | 2299 ft | 223 kts | 172° |
| 2026-04-24 08:54 | 61.38298 | 73.00786 | 2165 ft | 211 kts | 148° |
| 2026-04-24 08:54 | 61.37259 | 73.02758 | 2142 ft | 196 kts | 134° |
| 2026-04-24 08:54 | 61.36345 | 73.04737 | 2105 ft | 189 kts | 135° |
| 2026-04-24 08:55 | 61.35425 | 73.06704 | 1966 ft | 188 kts | 135° |
| 2026-04-24 08:55 | 61.34539 | 73.08621 | 1844 ft | 179 kts | 130° |
| 2026-04-24 08:55 | 61.34173 | 73.10930 | 1826 ft | 167 kts | 88° |
| 2026-04-24 08:55 | 61.34250 | 73.13341 | 1827 ft | 166 kts | 90° |
| 2026-04-24 08:56 | 61.34273 | 73.15668 | 1829 ft | 157 kts | 91° |
| 2026-04-24 08:56 | 61.34285 | 73.17914 | 1831 ft | 154 kts | 91° |
| 2026-04-24 08:56 | 61.34296 | 73.20123 | 1814 ft | 152 kts | 91° |
| 2026-04-24 08:56 | 61.34311 | 73.22352 | 1664 ft | 152 kts | 91° |
| 2026-04-24 08:57 | 61.34325 | 73.24485 | 1432 ft | 144 kts | 91° |
| 2026-04-24 08:57 | 61.34334 | 73.26545 | 1221 ft | 141 kts | 92° |
| 2026-04-24 08:57 | 61.34345 | 73.28595 | 1013 ft | 141 kts | 91° |
| 2026-04-24 08:57 | 61.34352 | 73.30608 | 844 ft | 140 kts | 91° |
| 2026-04-24 08:58 | 61.34358 | 73.32661 | 627 ft | 143 kts | 91° |
| 2026-04-24 08:58 | 61.34364 | 73.34728 | 457 ft | 143 kts | 91° |
| 2026-04-24 08:58 | 61.34373 | 73.36789 | 302 ft | 143 kts | 91° |
| 2026-04-24 08:58 | 61.34386 | 73.38822 | 203 ft | 130 kts | 89° |
| 2026-04-24 08:59 | 61.34387 | 73.40212 | 209 ft | 49 kts | 89° |
| 2026-04-24 08:59 | 61.34393 | 73.40698 | 204 ft | 29 kts | 89° |
| 2026-04-24 08:59 | 61.34348 | 73.40940 | 213 ft | 13 kts | 160° |
| 2026-04-24 08:59 | 61.34268 | 73.40946 | 213 ft | 10 kts | 180° |
| 2026-04-24 09:00 | 61.34199 | 73.40925 | 211 ft | 10 kts | 218° |
| 2026-04-24 09:00 | 61.34181 | 73.40788 | 207 ft | 10 kts | 271° |
| 2026-04-24 09:00 | 61.34181 | 73.40645 | 207 ft | 10 kts | 269° |
| 2026-04-24 09:00 | 61.34177 | 73.40506 | 207 ft | 10 kts | 253° |
| 2026-04-24 09:01 | 61.34145 | 73.40457 | 211 ft | 5 kts | 190° |
| 2026-04-24 09:01 | 61.34123 | 73.40455 | 207 ft | 0 kts | 180° |